This is the latest recevied weather packets stored in our database for station/object SR5NLK-1. If no packets are shown the sender has not sent any weather packets the latest 10 day(s).
| Time | Temp. | Humidity | Pressure | Rain* | Wind** | Luminosity | Snow |
|---|---|---|---|---|---|---|---|
| 1787639705 | 26.67° C | 51% | 1075.3 hPa | 0 mm | - | - | - |
| 1787639644 | 26.67° C | 51% | 1078.4 hPa | 0 mm | - | - | - |
| 1787639433 | 22.78° C | 65% | 1103 hPa | 0 mm | - | - | - |
| 1787639405 | 26.11° C | 51% | 1033.4 hPa | 0 mm | - | - | - |
| 1787639105 | 25.56° C | 52% | 1068.9 hPa | 0 mm | - | - | - |
| 1787639063 | 22.22° C | 68% | 1022.5 hPa | 0 mm | - | - | - |
| 1787638701 | 21.67° C | 72% | 1085.7 hPa | 0 mm | - | - | - |
| 1787638505 | 25.56° C | 52% | 1041 hPa | 0 mm | - | - | - |
| 1787638313 | 21.67° C | 75% | 1055.3 hPa | 0 mm | - | - | - |
| 1787638205 | 25.56° C | 53% | 1094.1 hPa | 0 mm | - | - | - |
| 1787637979 | 21.11° C | 78% | 1045.7 hPa | 0 mm | - | - | - |
| 1787637905 | 25.56° C | 55% | 1083.2 hPa | 0 mm | - | - | - |
| 1787637664 | 25° C | 56% | 1066.8 hPa | 0 mm | - | - | - |
| 1787637605 | 25° C | 56% | 1037.9 hPa | 0 mm | - | - | - |
| 1787637305 | 25° C | 57% | 1074.6 hPa | 0 mm | - | - | - |
| 1787637005 | 24.44° C | 60% | 1072.1 hPa | 0 mm | - | - | - |
| 1787636902 | 18.89° C | 91% | 1079.4 hPa | 0 mm | - | - | - |
| 1787636705 | 23.89° C | 61% | 1081.6 hPa | 0 mm | - | - | - |
| 1787636564 | 18.33° C | 93% | 1084.7 hPa | 0 mm | - | - | - |
| 1787636405 | 22.78° C | 63% | 1039.6 hPa | 0 mm | - | - | - |
| 1787636207 | 17.78° C | 95% | 1045.9 hPa | 0 mm | - | - | - |
| 1787636105 | 22.78° C | 65% | 1103 hPa | 0 mm | - | - | - |
| 1787635853 | 16.67° C | 95% | 1028.7 hPa | 0 mm | - | - | - |
| 1787635805 | 22.22° C | 68% | 1022.5 hPa | 0 mm | - | - | - |
| 1787635684 | 22.22° C | 70% | 1088.2 hPa | 0 mm | - | - | - |
* Rain latest hour (hover to see other rain measurements)
** Current wind speed in m/s (hover to see current wind gust speed)